Time;durP1;ratioP1;P1;durP2;ratioP2;P2;SDS_P1;SDS_P2;PMS_P1;PMS_P2;Temp;Humidity;BMP_temperature;BMP_pressure;BME280_temperature;BME280_humidity;BME280_pressure;Samples;Min_cycle;Max_cycle;Signal;HPM_P1;HPM_P2
2023/03/07 00:00:36;;;;;;;11.68;7.00;;;4.60;53.30;;;;;;5054696;28;20542;-69
2023/03/07 00:03:05;;;;;;;9.60;6.80;;;4.60;53.40;;;;;;5063460;28;20243;-70
2023/03/07 00:05:32;;;;;;;10.40;6.43;;;4.60;53.60;;;;;;5074598;28;20217;-69
2023/03/07 00:08:00;;;;;;;9.07;5.68;;;4.60;53.30;;;;;;5071181;28;20213;-69
2023/03/07 00:10:27;;;;;;;8.10;5.60;;;4.60;52.80;;;;;;5073967;28;20194;-71
2023/03/07 00:12:53;;;;;;;10.73;7.03;;;4.60;52.40;;;;;;5071383;28;20221;-69
2023/03/07 00:15:20;;;;;;;8.52;6.43;;;4.60;52.20;;;;;;5074209;28;20193;-69
2023/03/07 00:17:47;;;;;;;11.60;6.10;;;4.70;52.00;;;;;;5057733;28;20186;-69
2023/03/07 00:20:16;;;;;;;9.02;5.57;;;4.70;52.00;;;;;;5054001;28;20186;-69
2023/03/07 00:22:45;;;;;;;9.13;5.20;;;4.70;51.70;;;;;;5053868;28;20265;-69
2023/03/07 00:25:13;;;;;;;8.65;6.28;;;4.70;51.70;;;;;;5053833;28;20218;-70
2023/03/07 00:27:41;;;;;;;10.07;6.43;;;4.70;51.70;;;;;;5052896;28;20201;-69
2023/03/07 00:30:11;;;;;;;11.07;6.50;;;4.70;51.60;;;;;;5053998;28;20187;-69
2023/03/07 00:32:38;;;;;;;7.00;5.45;;;4.70;51.60;;;;;;5051956;28;20712;-69
2023/03/07 00:35:05;;;;;;;7.93;4.95;;;4.70;51.80;;;;;;5053925;28;20190;-69
2023/03/07 00:37:33;;;;;;;11.30;6.40;;;4.80;51.60;;;;;;5053777;28;20182;-68
2023/03/07 00:40:00;;;;;;;8.15;5.65;;;4.70;51.00;;;;;;5053881;28;20256;-68
2023/03/07 00:42:27;;;;;;;10.60;5.80;;;4.70;50.80;;;;;;5053141;28;20194;-70
2023/03/07 00:44:54;;;;;;;12.15;6.53;;;4.70;50.90;;;;;;5069262;28;20324;-69
2023/03/07 00:47:21;;;;;;;17.27;6.88;;;4.70;50.60;;;;;;5064642;28;20174;-69
2023/03/07 00:49:48;;;;;;;11.70;6.80;;;4.70;50.70;;;;;;5053709;28;20697;-69
2023/03/07 00:52:15;;;;;;;9.45;5.82;;;4.70;50.90;;;;;;5052773;28;20515;-69
2023/03/07 00:54:44;;;;;;;10.00;5.30;;;4.70;50.80;;;;;;5053579;28;20276;-68
2023/03/07 00:57:10;;;;;;;11.38;6.60;;;4.70;50.90;;;;;;5056673;28;20577;-69
2023/03/07 00:59:37;;;;;;;17.75;5.93;;;4.70;51.10;;;;;;5073608;28;20190;-69
2023/03/07 01:02:04;;;;;;;8.05;5.20;;;4.70;51.10;;;;;;5067762;28;20245;-71
2023/03/07 01:04:31;;;;;;;14.55;5.18;;;4.70;51.40;;;;;;5053469;28;20317;-69
2023/03/07 01:06:58;;;;;;;7.78;5.57;;;4.70;51.80;;;;;;5051696;28;20195;-71
2023/03/07 01:09:25;;;;;;;11.13;5.75;;;4.70;51.70;;;;;;5052399;28;20194;-69
2023/03/07 01:11:54;;;;;;;7.53;5.75;;;4.70;51.50;;;;;;5052449;28;20244;-70
2023/03/07 01:14:21;;;;;;;8.98;6.00;;;4.70;51.30;;;;;;5073142;28;20670;-70
2023/03/07 01:16:48;;;;;;;9.95;7.22;;;4.60;51.60;;;;;;5067757;28;20182;-68
2023/03/07 01:19:15;;;;;;;11.27;6.65;;;4.60;52.30;;;;;;5052005;28;20190;-69
2023/03/07 01:21:43;;;;;;;11.85;6.38;;;4.60;51.90;;;;;;5052100;28;20596;-68
2023/03/07 01:24:13;;;;;;;14.95;6.88;;;4.60;52.10;;;;;;5070060;28;20672;-68
2023/03/07 01:26:40;;;;;;;10.43;6.10;;;4.50;52.10;;;;;;5068615;28;20651;-69
2023/03/07 01:29:10;;;;;;;10.13;5.72;;;4.50;52.10;;;;;;5060496;28;20244;-69
2023/03/07 01:31:37;;;;;;;8.38;5.88;;;4.50;52.10;;;;;;5068624;28;20269;-69
2023/03/07 01:34:05;;;;;;;10.80;6.28;;;4.40;51.90;;;;;;5052870;28;20273;-70
2023/03/07 01:36:33;;;;;;;10.00;6.32;;;4.40;52.30;;;;;;5051810;28;20229;-69
2023/03/07 01:39:05;;;;;;;10.10;5.90;;;4.30;52.60;;;;;;5053892;28;20564;-69
2023/03/07 01:41:36;;;;;;;13.88;6.53;;;4.30;52.80;;;;;;5070988;28;20259;-68
2023/03/07 01:44:12;;;;;;;10.05;6.00;;;4.20;53.10;;;;;;5072303;28;20548;-69
2023/03/07 01:46:49;;;;;;;10.95;6.68;;;4.20;53.30;;;;;;5069162;28;20287;-73
2023/03/07 01:49:24;;;;;;;9.30;5.97;;;4.20;53.70;;;;;;5053063;28;20228;-69
2023/03/07 01:51:56;;;;;;;9.93;6.18;;;4.20;53.90;;;;;;5052872;28;20286;-69
2023/03/07 01:54:24;;;;;;;10.18;6.30;;;4.20;53.90;;;;;;5050749;28;20489;-70
2023/03/07 01:56:52;;;;;;;11.40;5.75;;;4.20;52.60;;;;;;5052864;28;20285;-70
2023/03/07 01:59:27;;;;;;;11.55;5.53;;;4.20;52.70;;;;;;5052084;28;20715;-69
2023/03/07 02:01:57;;;;;;;11.32;6.85;;;4.20;53.10;;;;;;5051613;28;20221;-69
2023/03/07 02:04:30;;;;;;;7.50;5.88;;;4.10;53.30;;;;;;5051733;28;20217;-70
2023/03/07 02:06:57;;;;;;;9.57;6.15;;;4.10;53.80;;;;;;5051442;28;20190;-68
2023/03/07 02:09:26;;;;;;;9.27;5.68;;;4.10;53.20;;;;;;5051435;28;20594;-68
2023/03/07 02:11:55;;;;;;;11.32;6.43;;;4.00;51.90;;;;;;5051406;28;20193;-69
2023/03/07 02:14:22;;;;;;;10.70;5.10;;;4.00;52.20;;;;;;5051570;28;20186;-73
2023/03/07 02:16:49;;;;;;;11.80;6.18;;;4.00;52.40;;;;;;5032304;28;20711;-69
2023/03/07 02:19:30;;;;;;;8.55;5.55;;;4.00;52.50;;;;;;5037772;28;20178;-71
2023/03/07 02:22:07;;;;;;;10.20;5.95;;;4.00;52.50;;;;;;5059367;28;20220;-69
2023/03/07 02:24:42;;;;;;;8.88;5.75;;;4.00;52.70;;;;;;5056356;28;20313;-69
2023/03/07 02:27:10;;;;;;;12.10;6.57;;;4.10;52.50;;;;;;5055306;28;20251;-69
2023/03/07 02:29:38;;;;;;;9.35;5.70;;;4.10;52.20;;;;;;5076447;28;20244;-69
2023/03/07 02:32:06;;;;;;;11.70;6.57;;;4.20;52.20;;;;;;5060778;28;20193;-69
2023/03/07 02:34:33;;;;;;;12.82;6.00;;;4.20;52.00;;;;;;5051508;28;20189;-69
2023/03/07 02:37:04;;;;;;;11.73;5.80;;;4.20;52.10;;;;;;5072409;28;20182;-70
2023/03/07 02:39:32;;;;;;;9.75;6.03;;;4.30;51.90;;;;;;5059317;28;20286;-69
2023/03/07 02:42:02;;;;;;;9.40;5.85;;;4.30;51.30;;;;;;5055280;28;20194;-68
2023/03/07 02:44:30;;;;;;;10.95;5.72;;;4.30;51.60;;;;;;5053035;28;20209;-71
2023/03/07 02:46:57;;;;;;;12.55;6.32;;;4.30;51.80;;;;;;5036269;28;20249;-69
2023/03/07 02:49:24;;;;;;;9.15;5.88;;;4.30;52.00;;;;;;5046973;28;20232;-69
2023/03/07 02:51:56;;;;;;;12.35;6.40;;;4.20;51.80;;;;;;5056104;28;20632;-68
2023/03/07 02:54:23;;;;;;;7.80;5.72;;;4.20;52.10;;;;;;5058143;28;20717;-70
2023/03/07 02:56:50;;;;;;;10.27;6.47;;;4.20;52.30;;;;;;5075595;28;20189;-70
2023/03/07 02:59:17;;;;;;;15.45;6.93;;;4.30;52.40;;;;;;5066669;28;20561;-69
2023/03/07 03:01:46;;;;;;;9.43;6.05;;;4.20;52.70;;;;;;5055685;28;20317;-70
2023/03/07 03:04:13;;;;;;;11.90;5.95;;;4.20;52.70;;;;;;5056666;28;20284;-69
2023/03/07 03:06:40;;;;;;;8.43;6.50;;;4.20;52.90;;;;;;5075578;28;20200;-68
2023/03/07 03:09:07;;;;;;;9.13;5.63;;;4.20;53.00;;;;;;5064332;28;20233;-69
2023/03/07 03:11:34;;;;;;;11.30;7.22;;;4.20;53.00;;;;;;5055272;28;20187;-70
2023/03/07 03:14:01;;;;;;;14.35;7.70;;;4.20;53.10;;;;;;5054666;28;20178;-69
2023/03/07 03:16:28;;;;;;;12.98;7.85;;;4.20;53.20;;;;;;5055495;28;20221;-69
2023/03/07 03:18:56;;;;;;;11.23;6.85;;;4.20;53.30;;;;;;5056868;28;20265;-69
2023/03/07 03:21:23;;;;;;;15.32;6.75;;;4.20;53.30;;;;;;5075502;28;20519;-69
2023/03/07 03:23:50;;;;;;;10.40;6.30;;;4.20;53.30;;;;;;5070906;28;20586;-68
2023/03/07 03:26:17;;;;;;;12.07;6.95;;;4.30;53.40;;;;;;5054319;28;20315;-69
2023/03/07 03:28:44;;;;;;;13.75;7.68;;;4.30;53.50;;;;;;5054808;28;20186;-69
2023/03/07 03:31:14;;;;;;;13.15;7.68;;;4.30;53.60;;;;;;5055351;28;20191;-69
2023/03/07 03:33:42;;;;;;;12.65;6.70;;;4.30;53.50;;;;;;5053141;28;20194;-70
2023/03/07 03:36:14;;;;;;;14.55;7.32;;;4.30;53.50;;;;;;5053170;28;20186;-71
2023/03/07 03:38:41;;;;;;;11.10;6.65;;;4.30;53.30;;;;;;5055099;28;20193;-71
2023/03/07 03:41:11;;;;;;;11.57;7.32;;;4.30;53.40;;;;;;5054110;28;20190;-69
2023/03/07 03:43:38;;;;;;;9.30;6.78;;;4.30;53.30;;;;;;5053480;28;20289;-73
2023/03/07 03:46:05;;;;;;;10.07;6.10;;;4.20;53.40;;;;;;5063213;28;20214;-68
2023/03/07 03:48:32;;;;;;;11.30;7.47;;;4.20;53.50;;;;;;5054806;28;20195;-68
2023/03/07 03:51:03;;;;;;;11.10;7.70;;;4.20;53.80;;;;;;5054615;28;20194;-70
2023/03/07 03:53:33;;;;;;;11.23;6.47;;;4.20;53.90;;;;;;5064723;28;20573;-70
2023/03/07 03:56:04;;;;;;;11.40;7.53;;;4.20;54.00;;;;;;5056490;28;20480;-72
2023/03/07 03:58:31;;;;;;;12.05;7.55;;;4.20;54.00;;;;;;5053514;28;20222;-70
2023/03/07 04:01:01;;;;;;;13.20;8.52;;;4.20;54.00;;;;;;5055138;28;20249;-69
2023/03/07 04:03:29;;;;;;;11.65;6.65;;;4.10;54.20;;;;;;5073850;28;20189;-68
2023/03/07 04:06:01;;;;;;;11.80;7.53;;;4.10;54.40;;;;;;5064436;28;20210;-68
2023/03/07 04:08:28;;;;;;;11.68;6.70;;;4.10;54.60;;;;;;5054310;28;20206;-69
2023/03/07 04:10:56;;;;;;;14.13;8.50;;;4.10;54.70;;;;;;5060318;28;20178;-68
2023/03/07 04:13:23;;;;;;;13.00;7.40;;;4.10;54.90;;;;;;5073886;28;20189;-68
2023/03/07 04:15:51;;;;;;;13.35;7.57;;;4.10;54.90;;;;;;5069169;28;20228;-68
2023/03/07 04:18:18;;;;;;;13.88;8.50;;;4.10;55.00;;;;;;5073813;28;20678;-68
2023/03/07 04:20:45;;;;;;;17.58;7.45;;;4.10;55.10;;;;;;5074009;28;20190;-69
2023/03/07 04:23:12;;;;;;;11.77;7.50;;;4.10;55.50;;;;;;5074003;28;20612;-68
2023/03/07 04:25:39;;;;;;;12.10;8.40;;;4.10;55.50;;;;;;5066419;28;20213;-69
2023/03/07 04:28:07;;;;;;;16.30;7.88;;;4.10;55.60;;;;;;5053718;28;20222;-69
2023/03/07 04:30:34;;;;;;;17.88;8.40;;;4.10;55.70;;;;;;5053890;28;20301;-69
2023/03/07 04:33:01;;;;;;;15.65;8.40;;;4.00;55.70;;;;;;5066312;28;20239;-70
2023/03/07 04:35:28;;;;;;;14.27;8.80;;;4.10;55.80;;;;;;5071056;28;20221;-68
2023/03/07 04:37:55;;;;;;;15.63;8.40;;;4.10;55.80;;;;;;5073499;28;20717;-69
2023/03/07 04:40:21;;;;;;;11.70;7.35;;;4.00;55.80;;;;;;5056604;28;20662;-69
2023/03/07 04:42:48;;;;;;;14.20;8.20;;;4.00;56.10;;;;;;5053639;28;20281;-69
2023/03/07 04:45:17;;;;;;;9.20;6.70;;;3.90;56.40;;;;;;5061624;28;20743;-69
2023/03/07 04:47:44;;;;;;;11.85;7.28;;;3.80;56.50;;;;;;5073379;28;20200;-68
2023/03/07 04:50:11;;;;;;;14.85;8.40;;;3.80;56.60;;;;;;5062972;28;20517;-69
2023/03/07 04:52:38;;;;;;;11.43;7.28;;;3.80;56.90;;;;;;5073325;28;20221;-70
2023/03/07 04:55:06;;;;;;;13.98;8.35;;;3.70;57.00;;;;;;5066754;28;20267;-69
2023/03/07 04:57:33;;;;;;;17.10;9.43;;;3.60;57.40;;;;;;5072940;28;20221;-69
2023/03/07 04:59:59;;;;;;;14.52;8.10;;;3.50;57.60;;;;;;5061481;28;20266;-68
2023/03/07 05:02:28;;;;;;;15.93;8.95;;;3.50;57.70;;;;;;5053157;28;20270;-69
2023/03/07 05:04:55;;;;;;;19.45;10.25;;;3.50;57.90;;;;;;5053390;28;20225;-72
2023/03/07 05:07:22;;;;;;;17.30;10.00;;;3.50;58.10;;;;;;5053233;28;20269;-68
2023/03/07 05:09:49;;;;;;;17.77;9.93;;;3.30;58.30;;;;;;5053099;28;20190;-69
2023/03/07 05:12:16;;;;;;;14.25;9.13;;;3.30;58.60;;;;;;5053276;28;20267;-71
2023/03/07 05:14:43;;;;;;;13.43;8.52;;;3.20;58.70;;;;;;5053486;28;20309;-70
2023/03/07 05:17:10;;;;;;;15.98;9.65;;;3.20;58.80;;;;;;5073045;28;20662;-69
2023/03/07 05:19:38;;;;;;;18.10;9.98;;;3.10;59.00;;;;;;5067896;28;20182;-69
2023/03/07 05:22:06;;;;;;;15.70;9.00;;;3.10;59.20;;;;;;5052551;28;20649;-69
2023/03/07 05:24:33;;;;;;;13.52;8.48;;;3.00;59.40;;;;;;5052949;28;20181;-69
2023/03/07 05:27:00;;;;;;;15.95;9.48;;;3.00;59.50;;;;;;5069910;28;20576;-68
2023/03/07 05:29:27;;;;;;;15.77;9.35;;;2.90;59.60;;;;;;5070604;28;20616;-71
2023/03/07 05:31:54;;;;;;;16.95;8.85;;;2.90;59.70;;;;;;5069097;28;20221;-69
2023/03/07 05:34:21;;;;;;;14.48;7.95;;;2.80;59.70;;;;;;5070868;28;20208;-69
2023/03/07 05:36:49;;;;;;;11.82;7.82;;;2.80;59.70;;;;;;5051118;28;20214;-68
2023/03/07 05:39:16;;;;;;;12.07;8.05;;;2.70;59.70;;;;;;5051859;28;20233;-69
2023/03/07 05:41:43;;;;;;;11.00;7.53;;;2.60;60.10;;;;;;5071185;28;20204;-69
2023/03/07 05:44:10;;;;;;;17.20;8.00;;;2.60;60.30;;;;;;5072515;28;20770;-69
2023/03/07 05:46:37;;;;;;;12.18;7.82;;;2.50;60.50;;;;;;5072481;28;20300;-69
2023/03/07 05:49:04;;;;;;;17.15;7.88;;;2.50;60.70;;;;;;5072520;28;20232;-70
2023/03/07 05:51:31;;;;;;;14.68;8.02;;;2.50;60.70;;;;;;5066157;28;20278;-70
2023/03/07 05:53:59;;;;;;;14.57;7.63;;;2.50;60.70;;;;;;5071725;28;20280;-69
2023/03/07 05:56:26;;;;;;;15.02;9.55;;;2.50;60.70;;;;;;5072262;28;20247;-68
2023/03/07 05:58:53;;;;;;;15.55;10.05;;;2.40;60.80;;;;;;5072283;28;20693;-68
2023/03/07 06:01:20;;;;;;;18.77;9.38;;;2.40;61.60;;;;;;5068795;28;20218;-68
2023/03/07 06:03:47;;;;;;;15.50;7.97;;;2.40;61.50;;;;;;5071954;28;20286;-69
2023/03/07 06:06:14;;;;;;;15.88;10.27;;;2.40;61.90;;;;;;5054344;28;20642;-68
2023/03/07 06:08:41;;;;;;;18.30;8.88;;;2.30;62.30;;;;;;5052494;28;20281;-67
2023/03/07 06:11:09;;;;;;;20.23;8.93;;;2.30;62.50;;;;;;5052014;28;20271;-68
2023/03/07 06:13:36;;;;;;;17.52;9.43;;;2.30;62.60;;;;;;5051775;28;20201;-69
2023/03/07 06:16:03;;;;;;;17.70;11.07;;;2.30;62.90;;;;;;5052544;28;20595;-68
2023/03/07 06:18:30;;;;;;;21.85;11.82;;;2.40;62.80;;;;;;5072514;28;20284;-68
2023/03/07 06:20:59;;;;;;;21.83;16.00;;;2.40;62.90;;;;;;5055629;28;20269;-68
2023/03/07 06:23:26;;;;;;;15.52;11.50;;;2.60;62.80;;;;;;5052088;28;20232;-68
2023/03/07 06:25:53;;;;;;;25.00;13.07;;;2.70;62.60;;;;;;5052388;28;20238;-69
2023/03/07 06:28:22;;;;;;;17.77;11.60;;;2.80;62.10;;;;;;5052113;28;20285;-68
2023/03/07 06:30:49;;;;;;;17.77;9.82;;;2.90;62.00;;;;;;5052022;28;20281;-68
2023/03/07 06:33:16;;;;;;;16.85;8.32;;;3.00;62.40;;;;;;5052417;28;20285;-68
2023/03/07 06:35:44;;;;;;;15.25;8.02;;;3.20;62.00;;;;;;5054397;28;20273;-69
2023/03/07 06:38:13;;;;;;;16.90;8.82;;;3.40;61.50;;;;;;5057059;28;20282;-69
2023/03/07 06:40:40;;;;;;;16.73;8.98;;;3.60;60.90;;;;;;5059483;28;20653;-68
2023/03/07 06:43:07;;;;;;;17.20;8.98;;;3.80;60.80;;;;;;5043570;28;20199;-68
2023/03/07 06:45:37;;;;;;;16.73;9.50;;;4.00;59.90;;;;;;5047724;28;20278;-69
2023/03/07 06:48:04;;;;;;;13.90;9.57;;;4.10;58.50;;;;;;5047737;28;20244;-69
2023/03/07 06:50:31;;;;;;;14.68;8.75;;;4.10;58.30;;;;;;5049962;28;20451;-70
2023/03/07 06:52:58;;;;;;;14.25;8.45;;;4.20;58.60;;;;;;5052725;28;20277;-69
2023/03/07 06:55:25;;;;;;;19.65;9.70;;;4.20;57.20;;;;;;5048063;28;20278;-70
2023/03/07 06:57:52;;;;;;;14.13;9.23;;;4.20;57.00;;;;;;5051173;28;20187;-70
2023/03/07 07:00:21;;;;;;;14.52;8.52;;;4.20;57.00;;;;;;5051403;28;20312;-69
2023/03/07 07:02:50;;;;;;;19.20;9.18;;;4.20;57.10;;;;;;5056947;28;20273;-69
2023/03/07 07:05:17;;;;;;;18.90;11.13;;;4.30;57.20;;;;;;5061369;28;20664;-69
2023/03/07 07:07:44;;;;;;;17.83;10.65;;;4.50;57.00;;;;;;5055235;28;20572;-69
2023/03/07 07:10:12;;;;;;;18.60;11.88;;;4.60;56.80;;;;;;5052062;28;20241;-69
2023/03/07 07:12:39;;;;;;;17.67;9.98;;;4.80;56.60;;;;;;5054665;28;20593;-69
2023/03/07 07:15:07;;;;;;;18.38;11.43;;;5.00;56.50;;;;;;5054975;28;20190;-69
2023/03/07 07:17:35;;;;;;;17.60;9.15;;;5.30;56.20;;;;;;5053514;28;20206;-69
2023/03/07 07:20:04;;;;;;;14.38;8.73;;;5.80;55.60;;;;;;5054570;28;20220;-69
2023/03/07 07:22:34;;;;;;;12.85;9.02;;;6.50;54.20;;;;;;5053953;28;20190;-70
2023/03/07 07:25:01;;;;;;;19.65;10.23;;;7.10;53.00;;;;;;5054237;28;20195;-70
2023/03/07 07:27:28;;;;;;;14.88;9.18;;;7.80;50.80;;;;;;5054043;28;20693;-69
2023/03/07 07:29:57;;;;;;;13.73;9.82;;;8.50;49.60;;;;;;5054960;28;20532;-69
2023/03/07 07:32:24;;;;;;;14.52;9.82;;;9.10;46.90;;;;;;5051812;28;20665;-69
2023/03/07 07:34:51;;;;;;;13.52;9.57;;;9.60;45.70;;;;;;5054553;28;20509;-69
2023/03/07 07:37:20;;;;;;;11.35;8.90;;;10.30;43.40;;;;;;5054259;28;20547;-69
2023/03/07 07:39:49;;;;;;;17.25;11.80;;;11.10;41.40;;;;;;5054226;28;20194;-69
2023/03/07 07:42:16;;;;;;;14.70;10.30;;;11.80;38.90;;;;;;5051126;28;20636;-69
2023/03/07 07:44:45;;;;;;;14.77;9.63;;;12.50;37.30;;;;;;5053866;28;20183;-68
2023/03/07 07:47:13;;;;;;;16.13;10.55;;;13.40;36.20;;;;;;5053734;28;20529;-69
2023/03/07 07:49:40;;;;;;;17.92;12.75;;;14.60;34.00;;;;;;5054142;28;20195;-68
2023/03/07 07:52:07;;;;;;;20.05;11.52;;;15.50;32.20;;;;;;5053494;28;20194;-69
2023/03/07 07:54:35;;;;;;;12.10;8.73;;;16.20;29.90;;;;;;5052050;28;20187;-70
2023/03/07 07:57:02;;;;;;;17.47;11.77;;;17.10;29.00;;;;;;5063433;28;20516;-69
2023/03/07 07:59:32;;;;;;;18.73;11.23;;;17.90;28.20;;;;;;5054525;28;20441;-69
2023/03/07 08:02:00;;;;;;;15.47;11.03;;;18.80;26.50;;;;;;5052464;28;20477;-69
2023/03/07 08:04:29;;;;;;;14.10;10.30;;;19.80;25.70;;;;;;5066340;28;20445;-69
2023/03/07 08:06:56;;;;;;;15.00;10.37;;;20.20;24.30;;;;;;5059247;28;20558;-69
2023/03/07 08:09:23;;;;;;;15.20;9.83;;;20.60;24.00;;;;;;5056816;28;20950;-69
2023/03/07 08:11:52;;;;;;;16.00;10.93;;;21.40;23.40;;;;;;5053071;28;20432;-69
2023/03/07 08:14:19;;;;;;;14.03;10.40;;;22.40;22.70;;;;;;5053506;28;20452;-69
2023/03/07 08:16:46;;;;;;;14.77;10.50;;;23.20;21.50;;;;;;5052482;28;20838;-70
2023/03/07 08:19:13;;;;;;;12.43;10.57;;;24.30;20.60;;;;;;5052874;28;20479;-70
2023/03/07 08:21:40;;;;;;;15.73;11.07;;;25.00;19.70;;;;;;5053386;28;20433;-69
2023/03/07 08:24:07;;;;;;;15.47;10.07;;;25.80;19.00;;;;;;5053976;28;20425;-70
2023/03/07 08:26:34;;;;;;;16.00;10.67;;;26.90;18.10;;;;;;5053716;28;20484;-70
2023/03/07 08:29:03;;;;;;;14.13;10.60;;;28.00;17.00;;;;;;5053827;28;20467;-70
2023/03/07 08:31:30;;;;;;;13.70;10.90;;;28.90;16.30;;;;;;5054041;28;21246;-70
2023/03/07 08:33:57;;;;;;;11.47;9.40;;;29.90;16.30;;;;;;5053622;28;20444;-72
2023/03/07 08:36:24;;;;;;;15.70;10.30;;;30.70;14.50;;;;;;5053629;28;20446;-69
2023/03/07 08:38:52;;;;;;;15.60;11.53;;;31.30;13.70;;;;;;5053828;28;20437;-70
2023/03/07 08:41:20;;;;;;;13.03;10.60;;;31.30;13.10;;;;;;5053574;28;20444;-70
2023/03/07 08:43:48;;;;;;;13.73;10.10;;;31.80;12.70;;;;;;5053886;28;20479;-70
2023/03/07 08:46:16;;;;;;;12.13;10.73;;;32.60;13.00;;;;;;5053410;28;20441;-70
2023/03/07 08:48:43;;;;;;;12.90;9.80;;;33.40;11.70;;;;;;5053560;28;20436;-70
2023/03/07 08:51:13;;;;;;;11.83;10.67;;;34.10;11.60;;;;;;5053332;28;20931;-70
2023/03/07 08:53:41;;;;;;;10.97;9.70;;;34.40;10.80;;;;;;5053701;28;20437;-70
2023/03/07 08:56:10;;;;;;;10.43;9.23;;;34.60;10.20;;;;;;5053160;28;20483;-71
2023/03/07 08:58:37;;;;;;;10.33;9.20;;;34.70;10.90;;;;;;5053211;28;20448;-70
2023/03/07 09:01:06;;;;;;;11.03;9.40;;;35.00;10.20;;;;;;5050598;28;20425;-69
2023/03/07 09:03:36;;;;;;;11.07;9.60;;;35.60;10.00;;;;;;5033527;28;20938;-70
2023/03/07 09:06:04;;;;;;;10.97;9.80;;;35.90;9.40;;;;;;5033223;28;20438;-70
2023/03/07 09:08:31;;;;;;;11.50;10.20;;;36.20;9.20;;;;;;5048774;28;20483;-70
2023/03/07 09:11:02;;;;;;;12.60;9.87;;;36.30;8.60;;;;;;5058319;28;20436;-70
2023/03/07 09:13:29;;;;;;;10.30;8.70;;;36.40;9.30;;;;;;5054551;28;20927;-70
2023/03/07 09:15:56;;;;;;;10.90;9.60;;;36.60;8.90;;;;;;5052024;28;20777;-70
2023/03/07 09:18:23;;;;;;;11.10;9.93;;;36.10;8.70;;;;;;5052877;28;20567;-69
2023/03/07 09:20:51;;;;;;;12.10;10.13;;;36.20;8.80;;;;;;5052489;28;20604;-72
2023/03/07 09:23:18;;;;;;;10.73;9.60;;;36.20;9.50;;;;;;5069739;28;20515;-70
2023/03/07 09:25:45;;;;;;;12.30;10.00;;;36.80;9.10;;;;;;5057103;28;20838;-70
2023/03/07 09:28:12;;;;;;;11.30;9.57;;;37.90;8.40;;;;;;5070013;28;20497;-69
2023/03/07 09:30:39;;;;;;;12.20;9.40;;;38.50;8.00;;;;;;5069916;28;20842;-70
2023/03/07 09:33:06;;;;;;;16.33;10.10;;;38.80;7.70;;;;;;5061044;28;20444;-70
2023/03/07 09:35:33;;;;;;;11.30;9.77;;;39.00;7.30;;;;;;5054381;28;20499;-70
2023/03/07 09:38:01;;;;;;;10.63;9.63;;;39.00;7.70;;;;;;5053106;28;20481;-73
2023/03/07 09:40:29;;;;;;;13.50;10.67;;;39.50;7.60;;;;;;5064668;28;20775;-70
2023/03/07 09:43:09;;;;;;;12.33;11.13;;;39.90;7.80;;;;;;5065595;28;21000;-67
2023/03/07 09:45:46;;;;;;;13.63;11.70;;;40.80;6.70;;;;;;5063943;28;20866;-68
2023/03/07 09:48:39;;;;;;;12.20;10.90;;;41.30;6.20;;;;;;5037798;28;21858;-68
2023/03/07 09:51:15;;;;;;;11.57;10.43;;;40.20;6.10;;;;;;5052119;28;20637;-71
2023/03/07 09:53:47;;;;;;;13.60;11.20;;;37.70;6.50;;;;;;5063129;28;20782;-70
2023/03/07 09:56:22;;;;;;;11.70;10.50;;;35.00;7.30;;;;;;5051869;28;20871;-70
2023/03/07 09:58:54;;;;;;;13.17;10.73;;;33.20;8.80;;;;;;5053942;28;20558;-70
2023/03/07 10:01:24;;;;;;;12.27;10.83;;;34.30;8.70;;;;;;5054306;28;20469;-70
2023/03/07 10:03:58;;;;;;;15.27;10.20;;;35.80;8.50;;;;;;5054648;28;20459;-70
2023/03/07 10:06:30;;;;;;;12.07;10.43;;;36.10;7.70;;;;;;5052140;28;20441;-70
2023/03/07 10:08:59;;;;;;;12.70;11.00;;;36.40;7.70;;;;;;5057396;28;20551;-70
2023/03/07 10:11:45;;;;;;;11.10;10.00;;;37.70;7.50;;;;;;5072601;28;20778;-70
2023/03/07 10:14:33;;;;;;;13.20;10.77;;;39.10;7.00;;;;;;5072662;28;20440;-70
2023/03/07 10:17:07;;;;;;;12.07;10.17;;;40.50;6.60;;;;;;5063204;28;20538;-71
2023/03/07 10:19:41;;;;;;;10.37;9.37;;;41.70;6.10;;;;;;5048749;28;20528;-71
2023/03/07 10:22:21;;;;;;;13.00;10.60;;;42.70;5.50;;;;;;5051589;28;20469;-70
2023/03/07 10:25:06;;;;;;;10.90;9.70;;;43.40;5.60;;;;;;5064004;28;20443;-70
2023/03/07 10:27:33;;;;;;;11.53;10.40;;;43.70;5.50;;;;;;5056431;28;20962;-70
2023/03/07 10:30:08;;;;;;;12.13;10.63;;;43.40;5.30;;;;;;5057296;28;20523;-72
2023/03/07 10:32:47;;;;;;;10.53;9.60;;;43.20;5.30;;;;;;5050417;28;20520;-70
2023/03/07 10:35:19;;;;;;;12.70;11.40;;;42.60;5.00;;;;;;5052177;28;20530;-70
2023/03/07 10:37:50;;;;;;;12.03;10.60;;;42.30;5.00;;;;;;5052148;28;20579;-69
2023/03/07 10:40:28;;;;;;;11.33;10.03;;;42.40;5.10;;;;;;5054349;28;20436;-69
2023/03/07 10:42:56;;;;;;;11.50;10.30;;;42.40;4.90;;;;;;5056226;28;20491;-69
2023/03/07 10:45:23;;;;;;;12.80;10.80;;;40.20;4.60;;;;;;5054330;28;20472;-69
2023/03/07 10:47:50;;;;;;;12.23;10.93;;;37.80;5.50;;;;;;5056066;28;20924;-69
2023/03/07 10:50:31;;;;;;;12.27;10.83;;;35.40;6.20;;;;;;5056150;28;20520;-69
2023/03/07 10:53:01;;;;;;;12.80;10.07;;;33.50;7.40;;;;;;5055300;28;20436;-69
2023/03/07 10:55:38;;;;;;;13.80;10.90;;;34.00;8.10;;;;;;5056081;28;20498;-69
2023/03/07 10:58:23;;;;;;;14.73;10.63;;;34.20;7.30;;;;;;5055826;28;20591;-68
2023/03/07 11:01:17;;;;;;;14.70;10.80;;;31.90;8.10;;;;;;5055134;28;20491;-69
2023/03/07 11:03:49;;;;;;;15.00;10.80;;;29.30;9.10;;;;;;5055569;28;20455;-68
2023/03/07 11:06:35;;;;;;;13.67;11.00;;;27.80;11.30;;;;;;5055118;28;20441;-68
2023/03/07 11:09:13;;;;;;;14.50;10.77;;;29.10;11.50;;;;;;5055057;28;20947;-68
2023/03/07 11:11:48;;;;;;;13.07;11.23;;;29.40;10.40;;;;;;5047924;28;20477;-69
2023/03/07 11:14:15;;;;;;;14.03;11.10;;;30.70;10.30;;;;;;5049697;28;20440;-69
2023/03/07 11:16:49;;;;;;;12.10;9.90;;;32.70;9.50;;;;;;5055233;28;20445;-70
2023/03/07 11:19:37;;;;;;;11.53;10.30;;;34.60;8.50;;;;;;5054810;28;20961;-69
2023/03/07 11:22:17;;;;;;;15.70;10.50;;;33.10;8.00;;;;;;5055295;28;20527;-69
2023/03/07 11:24:59;;;;;;;11.60;10.07;;;30.70;8.70;;;;;;5055433;28;20520;-69
2023/03/07 11:27:34;;;;;;;12.80;10.33;;;31.80;10.10;;;;;;5049869;28;20529;-69
2023/03/07 11:30:28;;;;;;;11.50;10.27;;;34.50;9.30;;;;;;5048144;28;20523;-69
2023/03/07 11:33:03;;;;;;;13.70;11.20;;;37.10;8.00;;;;;;5050858;28;20445;-69
2023/03/07 11:35:50;;;;;;;13.10;11.70;;;38.90;7.00;;;;;;5053972;28;20519;-69
2023/03/07 11:38:28;;;;;;;13.60;11.60;;;40.10;6.20;;;;;;5047806;28;20511;-71
2023/03/07 11:41:02;;;;;;;15.30;10.20;;;41.00;6.00;;;;;;5048732;28;21071;-71
2023/03/07 11:43:52;;;;;;;11.03;9.80;;;41.40;5.70;;;;;;5048706;28;20531;-70
2023/03/07 11:46:32;;;;;;;12.27;11.07;;;41.20;5.30;;;;;;5049319;28;20900;-69
2023/03/07 11:49:11;;;;;;;15.70;12.40;;;39.40;6.00;;;;;;5049466;28;20556;-69
2023/03/07 11:51:50;;;;;;;11.60;10.23;;;39.90;6.00;;;;;;5051746;28;20542;-69
2023/03/07 11:54:29;;;;;;;12.70;11.37;;;40.70;5.70;;;;;;5049916;28;20468;-70
2023/03/07 11:57:04;;;;;;;13.50;10.70;;;41.50;5.30;;;;;;5051258;28;20441;-69
2023/03/07 11:59:48;;;;;;;12.80;11.50;;;42.20;5.00;;;;;;5052813;28;20440;-69
2023/03/07 12:02:52;;;;;;;13.07;10.13;;;42.50;4.90;;;;;;5053121;28;20560;-71
2023/03/07 12:05:42;;;;;;;12.33;11.03;;;42.60;4.90;;;;;;5037447;28;20510;-69
2023/03/07 12:08:37;;;;;;;12.03;10.40;;;42.20;4.90;;;;;;5053738;28;20448;-69
2023/03/07 12:11:28;;;;;;;12.80;11.53;;;42.30;5.30;;;;;;5052716;28;20437;-70
2023/03/07 12:14:06;;;;;;;12.50;11.07;;;42.50;4.60;;;;;;5053757;28;20554;-69
2023/03/07 12:16:47;;;;;;;12.60;11.00;;;42.20;4.90;;;;;;5048813;28;20528;-69
2023/03/07 12:19:39;;;;;;;12.43;11.13;;;41.80;4.70;;;;;;5053483;28;20468;-70
2023/03/07 12:22:19;;;;;;;12.73;11.00;;;41.40;5.00;;;;;;5051822;28;20448;-69
2023/03/07 12:25:11;;;;;;;13.40;12.10;;;41.40;4.70;;;;;;5050407;28;20856;-69
2023/03/07 12:27:41;;;;;;;12.97;11.00;;;41.50;4.70;;;;;;5046696;28;20476;-69
2023/03/07 12:30:22;;;;;;;16.50;10.37;;;40.80;4.80;;;;;;5052026;28;20523;-70
2023/03/07 12:32:52;;;;;;;11.60;10.40;;;40.60;5.40;;;;;;5050388;28;21380;-69
2023/03/07 12:35:28;;;;;;;13.40;11.90;;;40.80;5.30;;;;;;5052682;28;20770;-69
2023/03/07 12:38:01;;;;;;;12.60;11.37;;;40.60;5.00;;;;;;5050921;28;20527;-69
2023/03/07 12:40:35;;;;;;;13.20;11.43;;;39.50;5.30;;;;;;5052742;28;20529;-68
2023/03/07 12:43:14;;;;;;;12.53;11.23;;;39.30;5.60;;;;;;5053811;28;20975;-68
2023/03/07 12:45:47;;;;;;;12.70;11.40;;;39.50;5.90;;;;;;5052396;28;20531;-69
2023/03/07 12:48:22;;;;;;;12.60;10.97;;;39.60;5.70;;;;;;5051665;28;20978;-69
2023/03/07 12:50:57;;;;;;;13.93;12.00;;;39.10;5.80;;;;;;5055256;28;20519;-69
2023/03/07 12:53:33;;;;;;;12.87;11.47;;;38.80;5.90;;;;;;5050845;28;20827;-69
2023/03/07 12:56:11;;;;;;;11.67;10.50;;;38.50;6.40;;;;;;5052344;28;20490;-70
2023/03/07 12:58:41;;;;;;;14.17;12.03;;;38.40;6.20;;;;;;5051086;28;20775;-69